sensor_id;sensor_type;location;lat;lon;timestamp;pressure;altitude;pressure_sealevel;temperature;humidity
50302;BME280;36550;50.472;19.744;2023-02-19T00:00:57;97700.47;;;5.70;85.13
50302;BME280;36550;50.472;19.744;2023-02-19T00:04:03;97693.65;;;5.65;85.04
50302;BME280;36550;50.472;19.744;2023-02-19T00:06:49;97699.64;;;5.60;84.82
50302;BME280;36550;50.472;19.744;2023-02-19T00:09:57;97693.09;;;5.57;84.74
50302;BME280;36550;50.472;19.744;2023-02-19T00:12:41;97693.64;;;5.53;84.84
50302;BME280;36550;50.472;19.744;2023-02-19T00:15:47;97688.89;;;5.52;84.97
50302;BME280;36550;50.472;19.744;2023-02-19T00:19:00;97693.14;;;5.54;85.03
50302;BME280;36550;50.472;19.744;2023-02-19T00:22:04;97696.88;;;5.56;85.04
50302;BME280;36550;50.472;19.744;2023-02-19T00:25:11;97700.55;;;5.57;85.11
50302;BME280;36550;50.472;19.744;2023-02-19T00:27:58;97698.09;;;5.57;85.26
50302;BME280;36550;50.472;19.744;2023-02-19T00:31:20;97706.82;;;5.60;85.34
50302;BME280;36550;50.472;19.744;2023-02-19T00:34:26;97710.52;;;5.62;85.19
50302;BME280;36550;50.472;19.744;2023-02-19T00:37:32;97717.17;;;5.64;85.16
50302;BME280;36550;50.472;19.744;2023-02-19T00:40:37;97715.89;;;5.67;85.08
50302;BME280;36550;50.472;19.744;2023-02-19T00:43:42;97710.89;;;5.68;85.23
50302;BME280;36550;50.472;19.744;2023-02-19T00:46:54;97704.59;;;5.69;85.12
50302;BME280;36550;50.472;19.744;2023-02-19T00:49:59;97703.95;;;5.63;85.30
50302;BME280;36550;50.472;19.744;2023-02-19T00:52:44;97700.37;;;5.60;85.16
50302;BME280;36550;50.472;19.744;2023-02-19T00:55:52;97695.18;;;5.56;85.04
50302;BME280;36550;50.472;19.744;2023-02-19T00:58:56;97687.61;;;5.50;84.97
50302;BME280;36550;50.472;19.744;2023-02-19T01:01:42;97685.13;;;5.43;85.11
50302;BME280;36550;50.472;19.744;2023-02-19T01:04:32;97684.18;;;5.40;85.19
50302;BME280;36550;50.472;19.744;2023-02-19T01:07:40;97681.96;;;5.38;85.23
50302;BME280;36550;50.472;19.744;2023-02-19T01:10:44;97686.31;;;5.39;85.30
50302;BME280;36550;50.472;19.744;2023-02-19T01:14:06;97686.77;;;5.43;85.39
50302;BME280;36550;50.472;19.744;2023-02-19T01:16:50;97685.88;;;5.44;85.37
50302;BME280;36550;50.472;19.744;2023-02-19T01:19:37;97687.20;;;5.45;85.58
50302;BME280;36550;50.472;19.744;2023-02-19T01:22:42;97687.95;;;5.46;85.63
50302;BME280;36550;50.472;19.744;2023-02-19T01:25:46;97687.88;;;5.46;85.81
50302;BME280;36550;50.472;19.744;2023-02-19T01:29:13;97678.98;;;5.49;85.78
50302;BME280;36550;50.472;19.744;2023-02-19T01:32:17;97683.09;;;5.54;85.77
50302;BME280;36550;50.472;19.744;2023-02-19T01:35:09;97682.28;;;5.59;85.68
50302;BME280;36550;50.472;19.744;2023-02-19T01:38:01;97684.10;;;5.61;85.73
50302;BME280;36550;50.472;19.744;2023-02-19T01:40:57;97678.10;;;5.61;85.75
50302;BME280;36550;50.472;19.744;2023-02-19T01:47:08;97675.14;;;5.58;85.45
50302;BME280;36550;50.472;19.744;2023-02-19T01:49:55;97664.87;;;5.57;85.38
50302;BME280;36550;50.472;19.744;2023-02-19T01:53:02;97664.40;;;5.54;85.39
50302;BME280;36550;50.472;19.744;2023-02-19T01:56:10;97662.20;;;5.54;85.34
50302;BME280;36550;50.472;19.744;2023-02-19T01:58:59;97660.85;;;5.53;85.39
50302;BME280;36550;50.472;19.744;2023-02-19T02:02:02;97658.45;;;5.53;85.41
50302;BME280;36550;50.472;19.744;2023-02-19T02:05:21;97657.60;;;5.54;85.59
50302;BME280;36550;50.472;19.744;2023-02-19T02:08:10;97657.45;;;5.56;85.50
50302;BME280;36550;50.472;19.744;2023-02-19T02:11:34;97648.92;;;5.57;85.57
50302;BME280;36550;50.472;19.744;2023-02-19T02:14:40;97653.40;;;5.58;85.61
50302;BME280;36550;50.472;19.744;2023-02-19T02:20:49;97647.21;;;5.57;85.49
50302;BME280;36550;50.472;19.744;2023-02-19T02:26:38;97647.06;;;5.60;85.61
50302;BME280;36550;50.472;19.744;2023-02-19T02:33:52;97634.23;;;5.64;85.34
50302;BME280;36550;50.472;19.744;2023-02-19T02:36:17;97632.07;;;5.64;85.32
50302;BME280;36550;50.472;19.744;2023-02-19T02:39:21;97629.70;;;5.62;85.21
50302;BME280;36550;50.472;19.744;2023-02-19T02:42:10;97638.20;;;5.62;85.21
50302;BME280;36550;50.472;19.744;2023-02-19T02:45:34;97635.09;;;5.62;85.19
50302;BME280;36550;50.472;19.744;2023-02-19T02:48:39;97629.39;;;5.62;85.09
50302;BME280;36550;50.472;19.744;2023-02-19T02:51:51;97626.42;;;5.63;85.10
50302;BME280;36550;50.472;19.744;2023-02-19T02:54:48;97624.23;;;5.63;85.08
50302;BME280;36550;50.472;19.744;2023-02-19T02:58:13;97625.48;;;5.61;85.17
50302;BME280;36550;50.472;19.744;2023-02-19T03:01:28;97623.89;;;5.58;85.19
50302;BME280;36550;50.472;19.744;2023-02-19T03:08:10;97612.42;;;5.60;85.29
50302;BME280;36550;50.472;19.744;2023-02-19T03:11:20;97609.85;;;5.57;85.22
50302;BME280;36550;50.472;19.744;2023-02-19T03:14:32;97611.86;;;5.55;85.24
50302;BME280;36550;50.472;19.744;2023-02-19T03:17:51;97612.04;;;5.54;85.27
50302;BME280;36550;50.472;19.744;2023-02-19T03:20:57;97608.27;;;5.53;85.43
50302;BME280;36550;50.472;19.744;2023-02-19T03:23:42;97611.23;;;5.53;85.40
50302;BME280;36550;50.472;19.744;2023-02-19T03:26:51;97610.46;;;5.54;85.56
50302;BME280;36550;50.472;19.744;2023-02-19T03:29:50;97604.25;;;5.56;85.49
50302;BME280;36550;50.472;19.744;2023-02-19T03:33:00;97600.37;;;5.59;85.45
50302;BME280;36550;50.472;19.744;2023-02-19T03:36:05;97601.13;;;5.60;85.46
50302;BME280;36550;50.472;19.744;2023-02-19T03:38:56;97594.94;;;5.60;85.66
50302;BME280;36550;50.472;19.744;2023-02-19T03:42:07;97596.89;;;5.60;85.43
50302;BME280;36550;50.472;19.744;2023-02-19T03:51:37;97599.79;;;5.67;85.60
50302;BME280;36550;50.472;19.744;2023-02-19T03:55:05;97608.03;;;5.68;85.55
50302;BME280;36550;50.472;19.744;2023-02-19T03:58:14;97607.88;;;5.68;85.50
50302;BME280;36550;50.472;19.744;2023-02-19T04:01:08;97611.16;;;5.69;85.77
50302;BME280;36550;50.472;19.744;2023-02-19T04:04:29;97608.22;;;5.72;85.71
50302;BME280;36550;50.472;19.744;2023-02-19T04:07:20;97603.52;;;5.73;85.60
50302;BME280;36550;50.472;19.744;2023-02-19T04:10:14;97607.95;;;5.76;85.69
50302;BME280;36550;50.472;19.744;2023-02-19T04:13:05;97600.02;;;5.79;85.71
50302;BME280;36550;50.472;19.744;2023-02-19T04:16:19;97599.88;;;5.80;85.79
50302;BME280;36550;50.472;19.744;2023-02-19T04:19:26;97591.33;;;5.78;86.00
50302;BME280;36550;50.472;19.744;2023-02-19T04:22:31;97582.38;;;5.76;86.12
50302;BME280;36550;50.472;19.744;2023-02-19T04:25:37;97578.66;;;5.79;86.17
50302;BME280;36550;50.472;19.744;2023-02-19T04:28:22;97579.80;;;5.81;86.37
50302;BME280;36550;50.472;19.744;2023-02-19T04:31:23;97576.94;;;5.84;86.10
50302;BME280;36550;50.472;19.744;2023-02-19T04:34:08;97577.94;;;5.85;86.22
50302;BME280;36550;50.472;19.744;2023-02-19T04:36:52;97575.14;;;5.84;86.35
50302;BME280;36550;50.472;19.744;2023-02-19T04:39:36;97565.53;;;5.83;86.58
50302;BME280;36550;50.472;19.744;2023-02-19T04:42:21;97564.96;;;5.83;86.45
50302;BME280;36550;50.472;19.744;2023-02-19T04:45:07;97565.05;;;5.84;86.36
50302;BME280;36550;50.472;19.744;2023-02-19T04:48:00;97561.33;;;5.83;86.51
50302;BME280;36550;50.472;19.744;2023-02-19T04:51:05;97557.55;;;5.84;86.40
50302;BME280;36550;50.472;19.744;2023-02-19T04:53:58;97555.13;;;5.86;86.45
50302;BME280;36550;50.472;19.744;2023-02-19T04:56:45;97556.90;;;5.90;86.47
50302;BME280;36550;50.472;19.744;2023-02-19T04:59:31;97548.96;;;5.89;86.56
50302;BME280;36550;50.472;19.744;2023-02-19T05:02:55;97551.02;;;5.87;86.57
50302;BME280;36550;50.472;19.744;2023-02-19T05:06:02;97555.46;;;5.84;86.51
50302;BME280;36550;50.472;19.744;2023-02-19T05:09:06;97550.92;;;5.82;86.67
50302;BME280;36550;50.472;19.744;2023-02-19T05:12:11;97528.67;;;5.83;86.57
50302;BME280;36550;50.472;19.744;2023-02-19T05:14:55;97524.84;;;5.82;86.49
50302;BME280;36550;50.472;19.744;2023-02-19T05:17:56;97518.28;;;5.80;86.52
50302;BME280;36550;50.472;19.744;2023-02-19T05:21:20;97510.05;;;5.80;86.67
50302;BME280;36550;50.472;19.744;2023-02-19T05:24:21;97506.27;;;5.81;86.66
50302;BME280;36550;50.472;19.744;2023-02-19T05:27:07;97503.77;;;5.81;86.66
50302;BME280;36550;50.472;19.744;2023-02-19T05:30:12;97499.73;;;5.80;86.57
50302;BME280;36550;50.472;19.744;2023-02-19T05:32:58;97500.09;;;5.77;86.80
50302;BME280;36550;50.472;19.744;2023-02-19T05:35:44;97499.16;;;5.74;86.89
50302;BME280;36550;50.472;19.744;2023-02-19T05:38:29;97499.22;;;5.71;86.87
50302;BME280;36550;50.472;19.744;2023-02-19T05:41:20;97499.32;;;5.69;86.94
50302;BME280;36550;50.472;19.744;2023-02-19T05:44:25;97500.00;;;5.69;86.87
50302;BME280;36550;50.472;19.744;2023-02-19T05:47:13;97503.36;;;5.70;86.91
50302;BME280;36550;50.472;19.744;2023-02-19T05:50:00;97501.80;;;5.70;86.98
50302;BME280;36550;50.472;19.744;2023-02-19T05:52:44;97497.50;;;5.71;87.24
50302;BME280;36550;50.472;19.744;2023-02-19T05:55:48;97500.42;;;5.71;87.07
50302;BME280;36550;50.472;19.744;2023-02-19T05:58:53;97492.95;;;5.70;87.13
50302;BME280;36550;50.472;19.744;2023-02-19T06:01:57;97490.55;;;5.69;87.39
50302;BME280;36550;50.472;19.744;2023-02-19T06:04:43;97497.28;;;5.68;87.31
50302;BME280;36550;50.472;19.744;2023-02-19T06:07:27;97498.36;;;5.70;87.19
50302;BME280;36550;50.472;19.744;2023-02-19T06:10:34;97500.89;;;5.73;87.33
50302;BME280;36550;50.472;19.744;2023-02-19T06:13:20;97503.32;;;5.76;87.15
50302;BME280;36550;50.472;19.744;2023-02-19T06:16:12;97511.39;;;5.77;87.21
50302;BME280;36550;50.472;19.744;2023-02-19T06:19:16;97509.83;;;5.80;87.45
50302;BME280;36550;50.472;19.744;2023-02-19T06:22:23;97505.86;;;5.85;87.45
50302;BME280;36550;50.472;19.744;2023-02-19T06:25:07;97496.94;;;5.88;87.49
50302;BME280;36550;50.472;19.744;2023-02-19T06:28:05;97492.57;;;5.88;87.37
50302;BME280;36550;50.472;19.744;2023-02-19T06:30:52;97492.23;;;5.89;87.40
50302;BME280;36550;50.472;19.744;2023-02-19T06:34:14;97501.13;;;5.90;87.56
50302;BME280;36550;50.472;19.744;2023-02-19T06:37:19;97501.19;;;5.91;87.52
50302;BME280;36550;50.472;19.744;2023-02-19T06:40:06;97501.28;;;5.94;87.41
50302;BME280;36550;50.472;19.744;2023-02-19T06:42:50;97495.16;;;5.95;87.35
50302;BME280;36550;50.472;19.744;2023-02-19T06:45:38;97497.13;;;5.99;87.39
50302;BME280;36550;50.472;19.744;2023-02-19T06:48:29;97499.64;;;6.01;87.36
50302;BME280;36550;50.472;19.744;2023-02-19T06:51:16;97497.30;;;6.05;87.31
50302;BME280;36550;50.472;19.744;2023-02-19T06:54:02;97501.41;;;6.11;87.39
50302;BME280;36550;50.472;19.744;2023-02-19T06:57:07;97505.69;;;6.14;87.38
50302;BME280;36550;50.472;19.744;2023-02-19T06:59:52;97510.30;;;6.15;87.65
50302;BME280;36550;50.472;19.744;2023-02-19T07:02:38;97509.03;;;6.14;87.46
50302;BME280;36550;50.472;19.744;2023-02-19T07:05:24;97512.81;;;6.16;87.42
50302;BME280;36550;50.472;19.744;2023-02-19T07:08:48;97518.25;;;6.18;87.59
50302;BME280;36550;50.472;19.744;2023-02-19T07:11:37;97514.20;;;6.13;87.56
50302;BME280;36550;50.472;19.744;2023-02-19T07:14:22;97513.23;;;6.08;87.74
50302;BME280;36550;50.472;19.744;2023-02-19T07:17:43;97510.56;;;6.06;87.74
50302;BME280;36550;50.472;19.744;2023-02-19T07:21:10;97512.41;;;6.01;88.05
50302;BME280;36550;50.472;19.744;2023-02-19T07:24:14;97509.21;;;6.01;88.09
50302;BME280;36550;50.472;19.744;2023-02-19T07:26:59;97505.36;;;6.02;88.35
50302;BME280;36550;50.472;19.744;2023-02-19T07:29:47;97507.14;;;6.08;88.18
50302;BME280;36550;50.472;19.744;2023-02-19T07:32:59;97507.14;;;6.15;88.26
50302;BME280;36550;50.472;19.744;2023-02-19T07:35:52;97505.20;;;6.19;88.25
50302;BME280;36550;50.472;19.744;2023-02-19T07:38:57;97501.47;;;6.23;88.19
50302;BME280;36550;50.472;19.744;2023-02-19T07:42:02;97503.92;;;6.22;88.22
50302;BME280;36550;50.472;19.744;2023-02-19T07:45:06;97511.30;;;6.23;88.14
50302;BME280;36550;50.472;19.744;2023-02-19T07:48:07;97504.25;;;6.22;88.11
50302;BME280;36550;50.472;19.744;2023-02-19T07:51:30;97499.64;;;6.22;87.90
50302;BME280;36550;50.472;19.744;2023-02-19T07:54:39;97502.20;;;6.22;87.77
50302;BME280;36550;50.472;19.744;2023-02-19T07:58:03;97502.55;;;6.21;87.73
50302;BME280;36550;50.472;19.744;2023-02-19T08:00:49;97503.39;;;6.20;87.78
50302;BME280;36550;50.472;19.744;2023-02-19T08:03:56;97507.07;;;6.13;88.08
50302;BME280;36550;50.472;19.744;2023-02-19T08:06:41;97503.17;;;6.07;88.42
50302;BME280;36550;50.472;19.744;2023-02-19T08:09:25;97509.09;;;6.05;88.59
50302;BME280;36550;50.472;19.744;2023-02-19T08:12:29;97514.67;;;6.08;88.73
50302;BME280;36550;50.472;19.744;2023-02-19T08:18:36;97509.27;;;6.32;88.65
50302;BME280;36550;50.472;19.744;2023-02-19T08:21:24;97510.52;;;6.44;88.38
50302;BME280;36550;50.472;19.744;2023-02-19T08:24:45;97507.30;;;6.51;88.24
50302;BME280;36550;50.472;19.744;2023-02-19T08:27:49;97516.10;;;6.50;87.94
50302;BME280;36550;50.472;19.744;2023-02-19T08:30:33;97524.88;;;6.45;87.99
50302;BME280;36550;50.472;19.744;2023-02-19T08:33:33;97527.20;;;6.38;87.95
50302;BME280;36550;50.472;19.744;2023-02-19T08:36:17;97530.95;;;6.30;88.13
50302;BME280;36550;50.472;19.744;2023-02-19T08:39:03;97536.31;;;6.22;88.26
50302;BME280;36550;50.472;19.744;2023-02-19T08:41:49;97535.73;;;6.10;88.48
50302;BME280;36550;50.472;19.744;2023-02-19T08:45:15;97541.29;;;5.93;88.68
50302;BME280;36550;50.472;19.744;2023-02-19T08:48:39;97547.02;;;5.70;89.21
50302;BME280;36550;50.472;19.744;2023-02-19T08:52:23;97559.61;;;5.39;90.12
50302;BME280;36550;50.472;19.744;2023-02-19T08:56:09;97565.20;;;5.06;90.39
50302;BME280;36550;50.472;19.744;2023-02-19T08:59:52;97565.08;;;4.85;91.14
50302;BME280;36550;50.472;19.744;2023-02-19T09:03:19;97566.06;;;4.78;91.61
50302;BME280;36550;50.472;19.744;2023-02-19T09:07:03;97570.99;;;4.57;91.57
50302;BME280;36550;50.472;19.744;2023-02-19T09:10:27;97569.36;;;4.45;91.84
50302;BME280;36550;50.472;19.744;2023-02-19T09:14:12;97571.42;;;4.38;92.02
50302;BME280;36550;50.472;19.744;2023-02-19T09:17:57;97572.21;;;4.32;91.87
50302;BME280;36550;50.472;19.744;2023-02-19T09:21:21;97569.42;;;4.25;91.60
50302;BME280;36550;50.472;19.744;2023-02-19T09:25:05;97573.11;;;4.21;91.86
50302;BME280;36550;50.472;19.744;2023-02-19T09:28:49;97572.59;;;4.12;91.97
50302;BME280;36550;50.472;19.744;2023-02-19T09:32:33;97570.36;;;4.05;91.64
50302;BME280;36550;50.472;19.744;2023-02-19T09:36:18;97577.77;;;4.00;91.52
50302;BME280;36550;50.472;19.744;2023-02-19T09:40:02;97577.04;;;4.00;91.49
50302;BME280;36550;50.472;19.744;2023-02-19T09:43:46;97576.99;;;3.98;91.49
50302;BME280;36550;50.472;19.744;2023-02-19T09:47:36;97581.52;;;3.98;91.57
50302;BME280;36550;50.472;19.744;2023-02-19T09:51:02;97587.66;;;3.97;91.55
50302;BME280;36550;50.472;19.744;2023-02-19T09:54:08;97599.29;;;3.95;91.48
50302;BME280;36550;50.472;19.744;2023-02-19T09:57:50;97609.23;;;3.81;90.93
50302;BME280;36550;50.472;19.744;2023-02-19T10:01:36;97623.52;;;3.71;90.99
50302;BME280;36550;50.472;19.744;2023-02-19T10:05:19;97639.31;;;3.59;91.02
50302;BME280;36550;50.472;19.744;2023-02-19T10:09:22;97646.89;;;3.51;91.05
50302;BME280;36550;50.472;19.744;2023-02-19T10:17:00;97658.61;;;3.18;90.83
50302;BME280;36550;50.472;19.744;2023-02-19T10:20:37;97655.77;;;3.04;91.10
50302;BME280;36550;50.472;19.744;2023-02-19T10:24:23;97650.17;;;3.05;91.18
50302;BME280;36550;50.472;19.744;2023-02-19T10:27:50;97659.82;;;3.02;91.23
50302;BME280;36550;50.472;19.744;2023-02-19T10:34:21;97659.67;;;3.08;91.61
50302;BME280;36550;50.472;19.744;2023-02-19T10:38:12;97661.11;;;3.07;91.18
50302;BME280;36550;50.472;19.744;2023-02-19T10:41:52;97665.61;;;3.07;90.89
50302;BME280;36550;50.472;19.744;2023-02-19T10:45:40;97666.98;;;3.18;90.68
50302;BME280;36550;50.472;19.744;2023-02-19T10:49:41;97674.45;;;3.30;90.50
50302;BME280;36550;50.472;19.744;2023-02-19T10:53:21;97677.98;;;3.39;90.51
50302;BME280;36550;50.472;19.744;2023-02-19T10:57:47;97673.82;;;3.50;90.42
50302;BME280;36550;50.472;19.744;2023-02-19T11:04:41;97682.02;;;3.58;89.88
50302;BME280;36550;50.472;19.744;2023-02-19T11:08:25;97689.41;;;3.62;90.08
50302;BME280;36550;50.472;19.744;2023-02-19T11:11:51;97690.79;;;3.52;89.71
50302;BME280;36550;50.472;19.744;2023-02-19T11:14:36;97689.89;;;3.43;89.74
50302;BME280;36550;50.472;19.744;2023-02-19T11:21:29;97700.02;;;3.43;89.94
50302;BME280;36550;50.472;19.744;2023-02-19T11:29:30;97699.21;;;3.53;89.53
50302;BME280;36550;50.472;19.744;2023-02-19T11:32:47;97702.92;;;3.57;88.91
50302;BME280;36550;50.472;19.744;2023-02-19T11:36:35;97702.70;;;3.58;88.89
50302;BME280;36550;50.472;19.744;2023-02-19T11:40:19;97709.70;;;3.66;88.79
50302;BME280;36550;50.472;19.744;2023-02-19T11:51:26;97717.72;;;3.65;86.28
50302;BME280;36550;50.472;19.744;2023-02-19T11:55:17;97721.48;;;3.75;85.66
50302;BME280;36550;50.472;19.744;2023-02-19T11:58:50;97722.80;;;3.95;85.64
50302;BME280;36550;50.472;19.744;2023-02-19T12:03:21;97725.99;;;4.13;85.64
50302;BME280;36550;50.472;19.744;2023-02-19T12:13:27;97735.92;;;4.60;84.95
50302;BME280;36550;50.472;19.744;2023-02-19T12:22:31;97740.53;;;5.04;84.20
50302;BME280;36550;50.472;19.744;2023-02-19T12:26:21;97742.85;;;5.14;83.70
50302;BME280;36550;50.472;19.744;2023-02-19T12:34:01;97743.80;;;5.13;83.13
50302;BME280;36550;50.472;19.744;2023-02-19T12:41:25;97754.37;;;5.03;83.27
50302;BME280;36550;50.472;19.744;2023-02-19T12:45:15;97753.61;;;4.96;83.19
50302;BME280;36550;50.472;19.744;2023-02-19T12:48:58;97756.55;;;4.91;82.70
50302;BME280;36550;50.472;19.744;2023-02-19T12:52:45;97756.27;;;4.86;82.69
50302;BME280;36550;50.472;19.744;2023-02-19T12:56:29;97769.63;;;4.83;82.30
50302;BME280;36550;50.472;19.744;2023-02-19T13:00:21;97779.17;;;4.69;81.61
50302;BME280;36550;50.472;19.744;2023-02-19T13:03:27;97785.83;;;4.56;81.56
50302;BME280;36550;50.472;19.744;2023-02-19T13:07:04;97786.74;;;4.51;82.03
50302;BME280;36550;50.472;19.744;2023-02-19T13:17:28;97788.38;;;4.51;81.55
50302;BME280;36550;50.472;19.744;2023-02-19T13:21:11;97786.30;;;4.47;81.26
50302;BME280;36550;50.472;19.744;2023-02-19T13:24:53;97793.49;;;4.40;81.75
50302;BME280;36550;50.472;19.744;2023-02-19T13:38:23;97816.66;;;4.15;79.96
50302;BME280;36550;50.472;19.744;2023-02-19T13:41:55;97823.31;;;4.11;80.69
50302;BME280;36550;50.472;19.744;2023-02-19T13:45:40;97832.80;;;3.98;79.85
50302;BME280;36550;50.472;19.744;2023-02-19T13:52:47;97838.15;;;3.99;80.91
50302;BME280;36550;50.472;19.744;2023-02-19T14:03:53;97852.05;;;4.34;80.61
50302;BME280;36550;50.472;19.744;2023-02-19T14:07:33;97861.45;;;4.39;79.54
50302;BME280;36550;50.472;19.744;2023-02-19T14:23:24;97889.77;;;4.13;77.96
50302;BME280;36550;50.472;19.744;2023-02-19T14:26:51;97897.90;;;4.06;77.47
50302;BME280;36550;50.472;19.744;2023-02-19T14:30:02;97899.73;;;4.05;78.00
50302;BME280;36550;50.472;19.744;2023-02-19T14:32:56;97903.10;;;3.99;77.68
50302;BME280;36550;50.472;19.744;2023-02-19T14:36:47;97914.78;;;3.92;77.84
50302;BME280;36550;50.472;19.744;2023-02-19T14:40:17;97918.89;;;3.81;77.94
50302;BME280;36550;50.472;19.744;2023-02-19T14:43:04;97930.36;;;3.74;78.03
50302;BME280;36550;50.472;19.744;2023-02-19T14:46:49;97932.73;;;3.70;77.72
50302;BME280;36550;50.472;19.744;2023-02-19T14:50:25;97932.29;;;3.61;77.25
50302;BME280;36550;50.472;19.744;2023-02-19T14:53:30;97935.66;;;3.57;77.67
50302;BME280;36550;50.472;19.744;2023-02-19T14:56:39;97941.95;;;3.55;78.08
50302;BME280;36550;50.472;19.744;2023-02-19T15:03:32;97956.61;;;3.46;76.73
50302;BME280;36550;50.472;19.744;2023-02-19T15:06:18;97956.67;;;3.40;76.29
50302;BME280;36550;50.472;19.744;2023-02-19T15:09:51;97966.17;;;3.32;76.24
50302;BME280;36550;50.472;19.744;2023-02-19T15:13:24;97967.84;;;3.29;75.97
50302;BME280;36550;50.472;19.744;2023-02-19T15:16:53;97972.79;;;3.25;75.99
50302;BME280;36550;50.472;19.744;2023-02-19T15:20:17;97974.63;;;3.19;75.57
50302;BME280;36550;50.472;19.744;2023-02-19T15:23:08;97977.91;;;3.15;75.71
50302;BME280;36550;50.472;19.744;2023-02-19T15:26:40;97979.92;;;3.13;75.70
50302;BME280;36550;50.472;19.744;2023-02-19T15:29:46;97982.55;;;3.08;76.00
50302;BME280;36550;50.472;19.744;2023-02-19T15:33:14;97988.96;;;3.03;76.23
50302;BME280;36550;50.472;19.744;2023-02-19T15:36:42;97992.55;;;2.98;76.67
50302;BME280;36550;50.472;19.744;2023-02-19T15:40:18;97997.19;;;2.98;77.14
50302;BME280;36550;50.472;19.744;2023-02-19T15:43:24;98001.11;;;2.96;77.34
50302;BME280;36550;50.472;19.744;2023-02-19T15:46:54;98003.27;;;2.93;77.74
50302;BME280;36550;50.472;19.744;2023-02-19T15:50:27;98006.48;;;2.92;78.18
50302;BME280;36550;50.472;19.744;2023-02-19T15:54:14;98006.72;;;2.89;78.16
50302;BME280;36550;50.472;19.744;2023-02-19T16:01:36;98019.09;;;2.88;77.68
50302;BME280;36550;50.472;19.744;2023-02-19T16:04:29;98022.09;;;2.85;77.50
50302;BME280;36550;50.472;19.744;2023-02-19T16:08:07;98036.02;;;2.81;77.68
50302;BME280;36550;50.472;19.744;2023-02-19T16:11:57;98043.60;;;2.79;77.76
50302;BME280;36550;50.472;19.744;2023-02-19T16:14:45;98051.86;;;2.76;77.36
50302;BME280;36550;50.472;19.744;2023-02-19T16:17:53;98067.39;;;2.75;77.07
50302;BME280;36550;50.472;19.744;2023-02-19T16:21:19;98069.71;;;2.68;76.70
50302;BME280;36550;50.472;19.744;2023-02-19T16:24:41;98076.98;;;2.61;76.06
50302;BME280;36550;50.472;19.744;2023-02-19T16:28:10;98081.52;;;2.57;76.42
50302;BME280;36550;50.472;19.744;2023-02-19T16:31:57;98082.94;;;2.56;76.33
50302;BME280;36550;50.472;19.744;2023-02-19T16:34:45;98090.08;;;2.58;76.60
50302;BME280;36550;50.472;19.744;2023-02-19T16:38:00;98094.35;;;2.57;76.73
50302;BME280;36550;50.472;19.744;2023-02-19T16:41:23;98102.82;;;2.56;77.18
50302;BME280;36550;50.472;19.744;2023-02-19T16:47:44;98123.45;;;2.52;77.42
50302;BME280;36550;50.472;19.744;2023-02-19T16:51:14;98124.76;;;2.54;77.20
50302;BME280;36550;50.472;19.744;2023-02-19T16:54:35;98129.55;;;2.51;76.83
50302;BME280;36550;50.472;19.744;2023-02-19T16:57:59;98136.88;;;2.46;76.80
50302;BME280;36550;50.472;19.744;2023-02-19T17:00:46;98140.33;;;2.45;76.91
50302;BME280;36550;50.472;19.744;2023-02-19T17:04:30;98152.88;;;2.43;76.99
50302;BME280;36550;50.472;19.744;2023-02-19T17:07:35;98158.08;;;2.45;77.15
50302;BME280;36550;50.472;19.744;2023-02-19T17:10:41;98163.52;;;2.43;76.69
50302;BME280;36550;50.472;19.744;2023-02-19T17:13:47;98173.84;;;2.36;76.55
50302;BME280;36550;50.472;19.744;2023-02-19T17:17:31;98174.34;;;2.34;77.06
50302;BME280;36550;50.472;19.744;2023-02-19T17:20:22;98174.29;;;2.33;77.30
50302;BME280;36550;50.472;19.744;2023-02-19T17:23:27;98181.02;;;2.30;77.17
50302;BME280;36550;50.472;19.744;2023-02-19T17:26:58;98185.16;;;2.27;76.87
50302;BME280;36550;50.472;19.744;2023-02-19T17:30:45;98183.30;;;2.23;77.06
50302;BME280;36550;50.472;19.744;2023-02-19T17:33:56;98189.30;;;2.17;77.31
50302;BME280;36550;50.472;19.744;2023-02-19T17:37:27;98186.84;;;2.09;77.29
50302;BME280;36550;50.472;19.744;2023-02-19T17:40:20;98185.72;;;2.04;77.48
50302;BME280;36550;50.472;19.744;2023-02-19T17:43:25;98186.63;;;2.01;77.52
50302;BME280;36550;50.472;19.744;2023-02-19T17:46:49;98197.74;;;1.94;77.41
50302;BME280;36550;50.472;19.744;2023-02-19T17:50:14;98202.95;;;1.84;77.63
50302;BME280;36550;50.472;19.744;2023-02-19T17:52:59;98217.27;;;1.74;77.70
50302;BME280;36550;50.472;19.744;2023-02-19T17:55:43;98229.09;;;1.61;77.65
50302;BME280;36550;50.472;19.744;2023-02-19T17:58:28;98233.71;;;1.48;77.80
50302;BME280;36550;50.472;19.744;2023-02-19T18:01:31;98237.41;;;1.40;77.88
50302;BME280;36550;50.472;19.744;2023-02-19T18:04:39;98246.23;;;1.35;77.98
50302;BME280;36550;50.472;19.744;2023-02-19T18:08:22;98251.41;;;1.27;78.06
50302;BME280;36550;50.472;19.744;2023-02-19T18:11:30;98262.80;;;1.21;78.53
50302;BME280;36550;50.472;19.744;2023-02-19T18:14:15;98263.79;;;1.18;78.68
50302;BME280;36550;50.472;19.744;2023-02-19T18:17:39;98265.08;;;1.17;78.77
50302;BME280;36550;50.472;19.744;2023-02-19T18:20:38;98275.03;;;1.17;78.71
50302;BME280;36550;50.472;19.744;2023-02-19T18:24:03;98279.15;;;1.13;78.76
50302;BME280;36550;50.472;19.744;2023-02-19T18:27:09;98291.16;;;1.07;78.83
50302;BME280;36550;50.472;19.744;2023-02-19T18:30:13;98294.73;;;1.01;78.75
50302;BME280;36550;50.472;19.744;2023-02-19T18:33:04;98297.43;;;0.95;78.85
50302;BME280;36550;50.472;19.744;2023-02-19T18:35:48;98303.83;;;0.91;78.87
50302;BME280;36550;50.472;19.744;2023-02-19T18:38:33;98301.54;;;0.90;79.00
50302;BME280;36550;50.472;19.744;2023-02-19T18:41:16;98298.77;;;0.92;79.25
50302;BME280;36550;50.472;19.744;2023-02-19T18:44:46;98300.69;;;0.95;79.41
50302;BME280;36550;50.472;19.744;2023-02-19T18:47:31;98302.66;;;0.96;79.52
50302;BME280;36550;50.472;19.744;2023-02-19T18:50:37;98303.08;;;0.95;79.53
50302;BME280;36550;50.472;19.744;2023-02-19T18:53:45;98308.05;;;0.96;79.80
50302;BME280;36550;50.472;19.744;2023-02-19T18:56:58;98304.52;;;1.00;79.80
50302;BME280;36550;50.472;19.744;2023-02-19T19:00:23;98308.01;;;1.09;80.03